Longueuil, Canada
Current Conditions -  °F | °C
As of 10:00 AM on Saturday 25 Oct 2014 (Local Time) from CYHU Reporting Station
Few Clouds Few Clouds  
Wind Chill: 43°   Ceiling: Unl
Heat Index: 48°   Visibility: 9mi
Dew Point: 41°   Wind: 14mph
Humidity: 76%   Direction: 240°WSW
Pressure: 29.71"   Gusts: NA
Location:  45.54°N, 73.49°W
Report Text: CYHU 251400Z AUTO 24012KT 9SM FEW039 09/05 A2971 RMK SLP061
Loading
Personal Weather Stations






























Interactive Weather Map New forecast layout! Learn more

10-Day Weather Forecast

Advertisements
Track Severe Weather on mobile